Time;durP1;ratioP1;P1;durP2;ratioP2;P2;SDS_P1;SDS_P2;PMS_P1;PMS_P2;Temp;Humidity;BMP_temperature;BMP_pressure;BME280_temperature;BME280_humidity;BME280_pressure;Samples;Min_cycle;Max_cycle;Signal;HPM_P1;HPM_P2
2024/01/27 00:01:05;;;;;;;14.75;3.17;;;2.90;99.90;;;;;;5077877;28;20367;-62
2024/01/27 00:03:31;;;;;;;17.27;3.35;;;2.80;99.90;;;;;;5094127;28;20040;-61
2024/01/27 00:05:56;;;;;;;15.93;2.72;;;2.80;99.90;;;;;;5089827;28;20174;-61
2024/01/27 00:08:22;;;;;;;15.32;3.15;;;2.80;99.90;;;;;;5074066;28;20048;-62
2024/01/27 00:10:47;;;;;;;22.20;4.07;;;2.80;99.90;;;;;;5057013;28;20052;-62
2024/01/27 00:13:13;;;;;;;11.63;2.45;;;2.70;99.90;;;;;;5094127;28;20035;-62
2024/01/27 00:15:39;;;;;;;21.45;3.80;;;2.70;99.90;;;;;;5092711;28;20101;-62
2024/01/27 00:18:04;;;;;;;21.65;2.97;;;2.70;99.90;;;;;;5093782;28;20126;-62
2024/01/27 00:20:30;;;;;;;19.63;4.10;;;2.70;99.90;;;;;;5078527;28;20111;-61
2024/01/27 00:22:56;;;;;;;21.00;3.30;;;2.70;99.90;;;;;;5071915;28;20044;-61
2024/01/27 00:25:21;;;;;;;17.60;3.60;;;2.70;99.90;;;;;;5073633;28;20047;-62
2024/01/27 00:27:47;;;;;;;15.45;3.30;;;2.70;99.90;;;;;;5073939;28;20461;-61
2024/01/27 00:30:13;;;;;;;19.33;3.65;;;2.60;99.90;;;;;;5093363;28;20048;-62
2024/01/27 00:32:39;;;;;;;17.27;3.30;;;2.60;99.90;;;;;;5092300;28;20050;-61
2024/01/27 00:35:05;;;;;;;18.13;3.80;;;2.50;99.90;;;;;;5093271;28;20119;-61
2024/01/27 00:37:30;;;;;;;17.80;3.25;;;2.60;99.90;;;;;;5093529;28;20040;-61
2024/01/27 00:39:56;;;;;;;20.52;2.80;;;2.50;99.90;;;;;;5093309;28;20039;-62
2024/01/27 00:42:23;;;;;;;18.38;3.85;;;2.50;99.90;;;;;;5087313;28;20055;-62
2024/01/27 00:44:50;;;;;;;18.92;3.25;;;2.60;99.90;;;;;;5071589;28;20151;-61
2024/01/27 00:47:16;;;;;;;17.40;3.42;;;2.50;99.90;;;;;;5071541;28;20406;-61
2024/01/27 00:49:41;;;;;;;15.35;3.25;;;2.50;99.90;;;;;;5072835;28;20041;-62
2024/01/27 00:52:07;;;;;;;21.20;3.35;;;2.50;99.90;;;;;;5054653;28;20101;-62
2024/01/27 00:54:33;;;;;;;17.75;4.10;;;2.50;99.90;;;;;;5054828;28;20052;-61
2024/01/27 00:56:58;;;;;;;19.48;3.88;;;2.50;99.90;;;;;;5071358;28;20042;-62
2024/01/27 00:59:24;;;;;;;17.05;3.10;;;2.50;99.90;;;;;;5072958;28;20098;-61
2024/01/27 01:01:49;;;;;;;12.20;2.63;;;2.50;99.90;;;;;;5072731;28;20547;-61
2024/01/27 01:04:15;;;;;;;13.38;3.53;;;2.50;99.90;;;;;;5073173;28;20044;-61
2024/01/27 01:06:41;;;;;;;18.20;3.38;;;2.50;99.90;;;;;;5087054;28;20043;-62
2024/01/27 01:09:06;;;;;;;15.90;3.17;;;2.40;99.90;;;;;;5091608;28;20047;-62
2024/01/27 01:11:32;;;;;;;22.05;4.45;;;2.40;99.90;;;;;;5092769;28;20043;-62
2024/01/27 01:13:58;;;;;;;18.90;3.47;;;2.40;99.90;;;;;;5092874;28;20040;-62
2024/01/27 01:16:23;;;;;;;15.63;4.07;;;2.40;99.90;;;;;;5091474;28;20042;-61
2024/01/27 01:18:49;;;;;;;16.50;3.92;;;2.40;99.90;;;;;;5091249;28;20040;-61
2024/01/27 01:21:14;;;;;;;16.45;3.53;;;2.40;99.90;;;;;;5091049;28;20066;-62
2024/01/27 01:23:40;;;;;;;13.40;2.97;;;2.40;99.90;;;;;;5092866;28;20384;-61
2024/01/27 01:26:06;;;;;;;17.65;3.17;;;2.30;99.90;;;;;;5091118;28;20048;-61
2024/01/27 01:28:32;;;;;;;19.13;3.78;;;2.40;99.90;;;;;;5091136;28;20048;-62
2024/01/27 01:30:58;;;;;;;17.92;3.13;;;2.30;99.90;;;;;;5090895;28;20064;-62
2024/01/27 01:33:23;;;;;;;17.45;3.00;;;2.30;99.90;;;;;;5092267;28;20441;-62
2024/01/27 01:35:49;;;;;;;19.10;3.17;;;2.30;99.90;;;;;;5091001;28;20474;-61
2024/01/27 01:38:14;;;;;;;20.23;3.92;;;2.20;99.90;;;;;;5092264;28;20107;-62
2024/01/27 01:40:40;;;;;;;23.38;4.13;;;2.20;99.90;;;;;;5092466;28;20111;-62
2024/01/27 01:43:12;;;;;;;25.15;3.88;;;2.20;99.90;;;;;;5090706;28;20101;-61
2024/01/27 01:45:38;;;;;;;22.25;3.70;;;2.20;99.90;;;;;;5090864;28;20048;-62
2024/01/27 01:48:04;;;;;;;19.52;2.95;;;2.20;99.90;;;;;;5090424;28;20185;-61
2024/01/27 01:50:29;;;;;;;18.88;4.65;;;2.20;99.90;;;;;;5090823;28;20040;-62
2024/01/27 01:52:56;;;;;;;11.32;3.15;;;2.20;99.90;;;;;;5092212;28;20107;-62
2024/01/27 01:55:22;;;;;;;15.60;3.28;;;2.20;99.90;;;;;;5090472;28;20079;-62
2024/01/27 01:57:48;;;;;;;21.25;3.50;;;2.10;99.90;;;;;;5072713;28;20044;-62
2024/01/27 02:00:14;;;;;;;15.55;3.17;;;2.10;99.90;;;;;;5073360;28;20090;-62
2024/01/27 02:02:42;;;;;;;27.50;3.90;;;2.10;99.90;;;;;;5070509;28;20479;-61
2024/01/27 02:05:09;;;;;;;18.55;3.72;;;2.10;99.90;;;;;;5070200;28;20404;-62
2024/01/27 02:07:35;;;;;;;20.23;3.60;;;2.20;99.90;;;;;;5070137;28;20122;-62
2024/01/27 02:10:02;;;;;;;17.38;2.97;;;2.20;99.90;;;;;;5071488;28;20040;-61
2024/01/27 02:12:27;;;;;;;17.90;3.38;;;2.30;99.90;;;;;;5091130;28;20447;-62
2024/01/27 02:14:53;;;;;;;24.23;4.05;;;2.20;99.90;;;;;;5073082;28;20119;-62
2024/01/27 02:17:19;;;;;;;14.23;3.22;;;2.20;99.90;;;;;;5072655;28;20040;-62
2024/01/27 02:19:44;;;;;;;16.88;3.10;;;2.20;99.90;;;;;;5089931;28;20055;-61
2024/01/27 02:22:10;;;;;;;16.65;3.55;;;2.20;99.90;;;;;;5072948;28;20044;-62
2024/01/27 02:24:35;;;;;;;19.98;4.22;;;2.20;99.90;;;;;;5069879;28;20117;-61
2024/01/27 02:27:01;;;;;;;15.75;3.10;;;2.20;99.90;;;;;;5070138;28;20045;-62
2024/01/27 02:29:27;;;;;;;13.30;2.67;;;2.20;99.90;;;;;;5069524;28;20070;-62
2024/01/27 02:31:54;;;;;;;19.63;3.45;;;2.20;99.90;;;;;;5069637;28;20047;-61
2024/01/27 02:34:20;;;;;;;14.80;3.20;;;2.20;99.90;;;;;;5070804;28;20040;-62
2024/01/27 02:36:46;;;;;;;13.65;3.13;;;2.20;99.90;;;;;;5069736;28;20547;-61
2024/01/27 02:39:11;;;;;;;21.10;3.40;;;2.20;99.90;;;;;;5070957;28;20036;-62
2024/01/27 02:41:39;;;;;;;17.70;2.97;;;2.20;99.90;;;;;;5072857;28;20408;-61
2024/01/27 02:44:05;;;;;;;20.55;3.45;;;2.20;99.90;;;;;;5089803;28;20032;-62
2024/01/27 02:46:31;;;;;;;19.50;4.00;;;2.20;99.90;;;;;;5090874;28;20071;-62
2024/01/27 02:48:57;;;;;;;14.85;3.13;;;2.20;99.90;;;;;;5091210;28;20071;-61
2024/01/27 02:51:22;;;;;;;17.80;2.78;;;2.20;99.90;;;;;;5090722;28;20105;-62
2024/01/27 02:53:48;;;;;;;17.80;3.00;;;2.20;99.90;;;;;;5091115;28;20043;-62
2024/01/27 02:56:16;;;;;;;17.50;3.40;;;2.10;99.90;;;;;;5091073;28;20417;-62
2024/01/27 02:58:42;;;;;;;20.08;3.45;;;2.20;99.90;;;;;;5072771;28;20047;-61
2024/01/27 03:01:07;;;;;;;14.77;3.50;;;2.20;99.90;;;;;;5090864;28;20482;-61
2024/01/27 03:03:33;;;;;;;12.23;3.45;;;2.20;99.90;;;;;;5090846;28;20098;-62
2024/01/27 03:05:59;;;;;;;21.67;3.60;;;2.20;99.90;;;;;;5091037;28;20032;-62
2024/01/27 03:08:24;;;;;;;17.38;3.58;;;2.10;99.90;;;;;;5089095;28;20039;-61
2024/01/27 03:10:50;;;;;;;20.35;3.08;;;2.10;99.90;;;;;;5090824;28;20043;-61
2024/01/27 03:13:16;;;;;;;27.25;5.35;;;2.10;99.90;;;;;;5072452;28;20087;-61
2024/01/27 03:15:43;;;;;;;15.63;3.28;;;2.10;99.90;;;;;;5089135;28;20032;-61
2024/01/27 03:18:08;;;;;;;16.08;3.55;;;2.10;99.90;;;;;;5089589;28;20044;-61
2024/01/27 03:20:34;;;;;;;15.50;3.35;;;2.10;99.90;;;;;;5090719;28;20036;-61
2024/01/27 03:23:00;;;;;;;16.27;4.00;;;2.10;99.90;;;;;;5090865;28;20441;-61
2024/01/27 03:25:25;;;;;;;20.90;3.60;;;2.10;99.90;;;;;;5089179;28;20044;-61
2024/01/27 03:27:52;;;;;;;22.45;4.53;;;2.00;99.90;;;;;;5090613;28;20047;-62
2024/01/27 03:30:17;;;;;;;18.55;4.20;;;2.10;99.90;;;;;;5090138;28;20479;-62
2024/01/27 03:32:43;;;;;;;15.82;2.80;;;2.00;99.90;;;;;;5090437;28;20048;-62
2024/01/27 03:35:09;;;;;;;20.75;3.22;;;2.00;99.90;;;;;;5076168;28;20036;-61
2024/01/27 03:37:34;;;;;;;17.67;3.63;;;2.00;99.90;;;;;;5070314;28;20399;-61
2024/01/27 03:40:01;;;;;;;20.23;3.85;;;2.00;99.90;;;;;;5052294;28;20518;-61
2024/01/27 03:42:26;;;;;;;13.00;2.83;;;2.00;99.90;;;;;;5070125;28;20040;-62
2024/01/27 03:44:52;;;;;;;16.02;3.50;;;1.90;99.90;;;;;;5068882;28;20388;-61
2024/01/27 03:47:18;;;;;;;15.55;3.10;;;1.90;99.90;;;;;;5070502;28;20055;-62
2024/01/27 03:49:43;;;;;;;17.45;3.47;;;1.90;99.90;;;;;;5069962;28;20548;-61
2024/01/27 03:52:10;;;;;;;19.92;3.15;;;1.90;99.90;;;;;;5068811;28;20039;-61
2024/01/27 03:54:38;;;;;;;18.42;3.65;;;1.90;99.90;;;;;;5068793;28;20190;-61
2024/01/27 03:57:04;;;;;;;17.90;3.28;;;1.90;99.90;;;;;;5068908;28;20041;-62
2024/01/27 03:59:29;;;;;;;18.20;3.90;;;1.90;99.90;;;;;;5069948;28;20400;-61
2024/01/27 04:01:55;;;;;;;18.90;4.90;;;1.90;99.90;;;;;;5068629;28;20048;-61
2024/01/27 04:04:21;;;;;;;20.13;3.28;;;1.90;99.90;;;;;;5068430;28;20048;-62
2024/01/27 04:06:47;;;;;;;17.25;3.25;;;1.80;99.90;;;;;;5068452;28;20388;-62
2024/01/27 04:09:13;;;;;;;20.98;3.40;;;1.80;99.90;;;;;;5068775;28;20115;-62
2024/01/27 04:11:39;;;;;;;12.73;3.15;;;1.80;99.90;;;;;;5070701;28;20052;-62
2024/01/27 04:14:06;;;;;;;21.70;3.30;;;1.80;99.90;;;;;;5090185;28;20036;-62
2024/01/27 04:16:32;;;;;;;19.52;3.95;;;1.90;99.90;;;;;;5080459;28;20047;-62
2024/01/27 04:18:58;;;;;;;18.52;3.55;;;1.90;99.90;;;;;;5088957;28;20044;-62
2024/01/27 04:21:23;;;;;;;12.85;3.55;;;1.90;99.90;;;;;;5092313;28;20044;-62
2024/01/27 04:23:49;;;;;;;20.83;4.25;;;1.90;99.90;;;;;;5092498;28;20525;-62
2024/01/27 04:26:15;;;;;;;16.48;3.40;;;1.90;99.90;;;;;;5088218;28;20043;-62
2024/01/27 04:28:41;;;;;;;19.60;3.70;;;1.90;99.90;;;;;;5054789;28;20139;-61
2024/01/27 04:31:07;;;;;;;18.40;3.85;;;1.90;99.90;;;;;;5073447;28;20447;-61
2024/01/27 04:33:32;;;;;;;15.85;3.55;;;1.80;99.90;;;;;;5079795;28;20059;-61
2024/01/27 04:35:58;;;;;;;25.17;4.90;;;1.80;99.90;;;;;;5072469;28;20032;-61
2024/01/27 04:38:24;;;;;;;18.33;3.55;;;1.80;99.90;;;;;;5073358;28;20036;-62
2024/01/27 04:40:51;;;;;;;17.98;3.05;;;1.80;99.90;;;;;;5071696;28;20048;-62
2024/01/27 04:43:17;;;;;;;23.13;3.83;;;1.80;99.90;;;;;;5071836;28;20399;-61
2024/01/27 04:45:43;;;;;;;19.55;3.15;;;1.80;99.90;;;;;;5071673;28;20048;-61
2024/01/27 04:48:09;;;;;;;23.10;4.00;;;1.80;99.90;;;;;;5072126;28;20047;-62
2024/01/27 04:50:35;;;;;;;14.57;3.47;;;1.80;99.90;;;;;;5087789;28;20043;-61
2024/01/27 04:53:00;;;;;;;19.95;4.63;;;1.80;99.90;;;;;;5090414;28;20028;-61
2024/01/27 04:55:26;;;;;;;16.50;3.78;;;1.80;99.90;;;;;;5077848;28;20036;-61
2024/01/27 04:57:53;;;;;;;22.40;3.47;;;1.80;99.90;;;;;;5091465;28;20391;-62
2024/01/27 05:00:19;;;;;;;20.38;3.25;;;1.90;99.90;;;;;;5092188;28;20391;-62
2024/01/27 05:02:45;;;;;;;20.65;5.40;;;1.90;99.90;;;;;;5091143;28;20048;-62
2024/01/27 05:05:11;;;;;;;17.10;3.22;;;1.80;99.90;;;;;;5093295;28;20044;-61
2024/01/27 05:07:38;;;;;;;16.38;3.53;;;1.80;99.90;;;;;;5093069;28;20093;-62
2024/01/27 05:10:04;;;;;;;16.48;4.10;;;1.80;99.90;;;;;;5091266;28;20465;-61
2024/01/27 05:12:30;;;;;;;19.25;3.75;;;1.80;99.90;;;;;;5074462;28;20139;-62
2024/01/27 05:14:56;;;;;;;19.58;3.92;;;1.90;99.90;;;;;;5091258;28;20119;-62
2024/01/27 05:17:21;;;;;;;19.65;4.32;;;1.80;99.90;;;;;;5091766;28;20101;-61
2024/01/27 05:19:49;;;;;;;20.00;3.83;;;1.80;99.90;;;;;;5092786;28;20044;-61
2024/01/27 05:22:15;;;;;;;25.15;4.22;;;1.80;99.90;;;;;;5091387;28;20111;-61
2024/01/27 05:24:41;;;;;;;21.98;3.88;;;1.80;99.90;;;;;;5091414;28;20463;-61
2024/01/27 05:27:06;;;;;;;15.63;3.80;;;1.70;99.90;;;;;;5090993;28;20086;-61
2024/01/27 05:29:32;;;;;;;20.95;4.97;;;1.70;99.90;;;;;;5091229;28;20052;-62
2024/01/27 05:31:58;;;;;;;20.75;4.55;;;1.70;99.90;;;;;;5081398;28;20048;-61
2024/01/27 05:34:23;;;;;;;16.23;3.80;;;1.70;99.90;;;;;;5091509;28;20039;-61
2024/01/27 05:36:49;;;;;;;14.63;4.22;;;1.70;99.90;;;;;;5092422;28;20032;-61
2024/01/27 05:39:15;;;;;;;15.65;4.43;;;1.70;99.90;;;;;;5092226;28;20089;-62
2024/01/27 05:41:40;;;;;;;17.75;4.65;;;1.70;99.90;;;;;;5090520;28;20051;-61
2024/01/27 05:44:06;;;;;;;15.52;5.43;;;1.70;99.90;;;;;;5090942;28;20138;-61
2024/01/27 05:46:31;;;;;;;19.58;4.65;;;1.70;99.90;;;;;;5092285;28;20062;-62
2024/01/27 05:49:02;;;;;;;16.15;4.32;;;1.60;99.90;;;;;;5090558;28;20047;-62
2024/01/27 05:51:28;;;;;;;17.48;4.70;;;1.70;99.90;;;;;;5092018;28;20044;-61
2024/01/27 05:53:54;;;;;;;16.70;5.07;;;1.60;99.90;;;;;;5083810;28;20127;-61
2024/01/27 05:56:22;;;;;;;24.63;5.35;;;1.60;99.90;;;;;;5071422;28;20525;-61
2024/01/27 05:58:48;;;;;;;16.70;5.43;;;1.60;99.90;;;;;;5070369;28;20045;-61
2024/01/27 06:01:14;;;;;;;25.40;6.82;;;1.60;99.90;;;;;;5071560;28;20505;-61
2024/01/27 06:03:43;;;;;;;22.55;5.53;;;1.50;99.90;;;;;;5070654;28;20488;-61
2024/01/27 06:06:10;;;;;;;20.25;6.13;;;1.50;99.90;;;;;;5070251;28;20044;-61
2024/01/27 06:08:36;;;;;;;19.83;6.30;;;1.50;99.90;;;;;;5071460;28;20044;-61
2024/01/27 06:11:03;;;;;;;20.85;6.40;;;1.40;99.90;;;;;;5069849;28;20098;-61
2024/01/27 06:13:28;;;;;;;21.48;6.00;;;1.40;99.90;;;;;;5084314;28;20475;-61
2024/01/27 06:15:54;;;;;;;23.73;6.20;;;1.50;99.90;;;;;;5089970;28;20113;-61
2024/01/27 06:18:20;;;;;;;25.02;6.00;;;1.40;99.90;;;;;;5089633;28;20051;-61
2024/01/27 06:20:46;;;;;;;22.40;6.60;;;1.40;99.90;;;;;;5090388;28;20043;-61
2024/01/27 06:23:12;;;;;;;21.45;7.45;;;1.50;99.90;;;;;;5091188;28;20040;-61
2024/01/27 06:25:37;;;;;;;16.80;5.53;;;1.50;99.90;;;;;;5089807;28;20105;-62
2024/01/27 06:28:03;;;;;;;15.50;5.65;;;1.50;99.90;;;;;;5089558;28;20495;-61
2024/01/27 06:30:29;;;;;;;21.45;6.32;;;1.50;99.90;;;;;;5091268;28;20047;-62
2024/01/27 06:32:54;;;;;;;20.40;5.82;;;1.50;99.90;;;;;;5090264;28;20087;-62
2024/01/27 06:35:20;;;;;;;22.45;7.15;;;1.50;99.90;;;;;;5091147;28;20042;-62
2024/01/27 06:37:46;;;;;;;18.05;6.47;;;1.50;99.90;;;;;;5091279;28;20035;-61
2024/01/27 06:40:12;;;;;;;18.75;6.15;;;1.50;99.90;;;;;;5089874;28;20046;-61
2024/01/27 06:42:38;;;;;;;16.88;6.30;;;1.50;99.90;;;;;;5090009;28;20123;-62
2024/01/27 06:45:04;;;;;;;25.60;6.30;;;1.40;99.90;;;;;;5081505;28;20119;-61
2024/01/27 06:47:30;;;;;;;24.65;6.57;;;1.50;99.90;;;;;;5070895;28;20106;-62
2024/01/27 06:49:56;;;;;;;20.77;6.35;;;1.40;99.90;;;;;;5070834;28;20476;-61
2024/01/27 06:52:21;;;;;;;25.08;7.03;;;1.40;99.90;;;;;;5069122;28;20045;-61
2024/01/27 06:54:47;;;;;;;28.60;9.20;;;1.40;99.90;;;;;;5070889;28;20072;-61
2024/01/27 06:57:23;;;;;;;29.70;8.20;;;1.40;99.90;;;;;;5070645;28;20391;-62
2024/01/27 06:59:52;;;;;;;17.83;7.63;;;1.40;99.90;;;;;;5070948;28;20036;-62
2024/01/27 07:02:28;;;;;;;28.10;8.88;;;1.40;99.90;;;;;;5069310;28;20036;-61
2024/01/27 07:04:55;;;;;;;30.33;11.25;;;1.40;99.90;;;;;;5069267;28;20080;-62
2024/01/27 07:07:26;;;;;;;35.50;11.05;;;1.40;99.90;;;;;;5069324;28;20036;-61
2024/01/27 07:09:52;;;;;;;31.45;10.07;;;1.40;99.90;;;;;;5084936;28;20124;-61
2024/01/27 07:12:18;;;;;;;29.90;8.73;;;1.40;99.90;;;;;;5089337;28;20043;-62
2024/01/27 07:14:43;;;;;;;31.95;8.60;;;1.40;99.90;;;;;;5089463;28;20419;-62
2024/01/27 07:17:09;;;;;;;23.40;9.73;;;1.40;99.90;;;;;;5089424;28;20044;-62
2024/01/27 07:19:35;;;;;;;34.70;12.40;;;1.40;99.90;;;;;;5090380;28;20067;-61
2024/01/27 07:22:02;;;;;;;26.88;9.40;;;1.40;99.90;;;;;;5090646;28;20102;-61
2024/01/27 07:24:29;;;;;;;24.38;8.20;;;1.40;99.90;;;;;;5089124;28;20040;-61
2024/01/27 07:26:55;;;;;;;21.38;7.15;;;1.40;99.90;;;;;;5089357;28;20161;-61
2024/01/27 07:29:20;;;;;;;20.35;6.95;;;1.50;99.90;;;;;;5089211;28;20108;-61
2024/01/27 07:31:47;;;;;;;24.30;7.20;;;1.40;99.90;;;;;;5090464;28;20399;-61
2024/01/27 07:34:13;;;;;;;26.35;6.93;;;1.40;99.90;;;;;;5090465;28;20043;-62
2024/01/27 07:36:38;;;;;;;21.48;7.18;;;1.40;99.90;;;;;;5090539;28;20380;-61
2024/01/27 07:39:04;;;;;;;24.02;6.05;;;1.40;99.90;;;;;;5090547;28;20390;-62
2024/01/27 07:41:31;;;;;;;21.98;6.57;;;1.40;99.90;;;;;;5071637;28;20101;-61
2024/01/27 07:43:57;;;;;;;21.52;7.82;;;1.50;99.90;;;;;;5090583;28;20475;-61
2024/01/27 07:46:22;;;;;;;20.55;7.63;;;1.40;99.90;;;;;;5089277;28;20047;-61
2024/01/27 07:48:49;;;;;;;28.88;7.85;;;1.40;99.90;;;;;;5090433;28;20040;-62
2024/01/27 07:51:15;;;;;;;29.02;7.88;;;1.50;99.90;;;;;;5090552;28;20115;-61
2024/01/27 07:53:41;;;;;;;25.52;7.70;;;1.50;99.90;;;;;;5070476;28;20028;-61
2024/01/27 07:56:07;;;;;;;22.65;6.93;;;1.60;99.90;;;;;;5071964;28;20051;-61
2024/01/27 07:58:33;;;;;;;18.25;6.45;;;1.60;99.90;;;;;;5072419;28;20040;-61
2024/01/27 08:01:00;;;;;;;25.52;6.95;;;1.60;99.90;;;;;;5072746;28;20063;-61
2024/01/27 08:03:25;;;;;;;22.88;6.63;;;1.60;99.90;;;;;;5072594;28;20055;-61
2024/01/27 08:05:51;;;;;;;24.02;7.15;;;1.60;99.90;;;;;;5074212;28;20048;-62
2024/01/27 08:08:17;;;;;;;27.65;7.75;;;1.60;99.90;;;;;;5072545;28;20040;-61
2024/01/27 08:10:44;;;;;;;21.92;8.13;;;1.70;99.90;;;;;;5083388;28;20505;-61
2024/01/27 08:13:09;;;;;;;29.00;7.95;;;1.70;99.90;;;;;;5094092;28;20031;-62
2024/01/27 08:15:35;;;;;;;28.38;8.02;;;1.70;99.90;;;;;;5092385;28;20414;-62
2024/01/27 08:18:00;;;;;;;26.83;6.95;;;1.80;99.90;;;;;;5093878;28;20028;-61
2024/01/27 08:20:26;;;;;;;22.20;7.65;;;1.80;99.90;;;;;;5093574;28;20050;-61
2024/01/27 08:22:52;;;;;;;23.75;7.32;;;1.80;99.90;;;;;;5092658;28;20036;-61
2024/01/27 08:25:20;;;;;;;20.85;7.13;;;1.90;99.90;;;;;;5092208;28;20553;-61
2024/01/27 08:27:46;;;;;;;22.08;7.30;;;1.90;99.90;;;;;;5089615;28;20052;-62
2024/01/27 08:30:12;;;;;;;24.88;8.00;;;2.00;99.90;;;;;;5072113;28;20426;-61
2024/01/27 08:32:38;;;;;;;25.30;8.45;;;2.00;99.90;;;;;;5071263;28;20061;-61
2024/01/27 08:35:05;;;;;;;26.50;8.80;;;2.10;99.90;;;;;;5073624;28;20474;-61
2024/01/27 08:37:36;;;;;;;20.35;7.95;;;2.10;99.90;;;;;;5073174;28;20036;-61
2024/01/27 08:40:02;;;;;;;23.52;8.07;;;2.20;99.90;;;;;;5079480;28;20117;-61
2024/01/27 08:42:27;;;;;;;23.70;7.30;;;2.20;99.90;;;;;;5073238;28;20041;-61
2024/01/27 08:44:53;;;;;;;21.75;7.72;;;2.30;99.90;;;;;;5073049;28;20044;-61
2024/01/27 08:47:19;;;;;;;17.83;7.32;;;2.30;99.90;;;;;;5073388;28;20456;-62
2024/01/27 08:49:44;;;;;;;25.38;9.02;;;2.30;99.90;;;;;;5073046;28;20496;-61
2024/01/27 08:52:10;;;;;;;23.08;8.30;;;2.40;99.90;;;;;;5071662;28;20037;-61
2024/01/27 08:54:35;;;;;;;24.92;9.23;;;2.50;99.90;;;;;;5071463;28;20045;-62
2024/01/27 08:57:02;;;;;;;21.25;7.95;;;2.50;99.90;;;;;;5071613;28;20040;-62
2024/01/27 08:59:27;;;;;;;19.98;7.80;;;2.60;99.90;;;;;;5073051;28;20105;-61
2024/01/27 09:01:53;;;;;;;25.70;9.10;;;2.70;99.90;;;;;;5071417;28;20115;-62
2024/01/27 09:04:18;;;;;;;22.00;8.20;;;2.70;99.90;;;;;;5072904;28;20418;-61
2024/01/27 09:06:44;;;;;;;20.42;8.75;;;2.80;99.90;;;;;;5054405;28;20093;-62
2024/01/27 09:09:09;;;;;;;18.98;7.57;;;2.90;99.90;;;;;;5072783;28;20036;-61
2024/01/27 09:11:35;;;;;;;22.85;8.18;;;2.90;99.90;;;;;;5072666;28;20408;-61
2024/01/27 09:14:01;;;;;;;18.92;7.97;;;3.00;99.90;;;;;;5071318;28;20131;-61
2024/01/27 09:16:27;;;;;;;23.33;9.90;;;3.10;99.90;;;;;;5071380;28;20124;-61
2024/01/27 09:18:52;;;;;;;26.10;8.93;;;3.20;99.90;;;;;;5071147;28;20040;-60
2024/01/27 09:21:20;;;;;;;25.15;8.98;;;3.30;99.90;;;;;;5072650;28;20502;-61
2024/01/27 09:23:47;;;;;;;23.77;8.23;;;3.40;99.90;;;;;;5070903;28;20080;-62
2024/01/27 09:26:15;;;;;;;23.40;8.02;;;3.50;99.90;;;;;;5071411;28;20039;-62
2024/01/27 09:28:43;;;;;;;15.70;7.50;;;3.60;99.90;;;;;;5071072;28;20090;-61
2024/01/27 09:31:12;;;;;;;19.02;8.18;;;3.70;99.90;;;;;;5064080;28;20103;-61
2024/01/27 09:33:38;;;;;;;20.10;8.10;;;3.90;99.90;;;;;;5072270;28;20080;-61
2024/01/27 09:36:04;;;;;;;20.95;8.05;;;4.00;99.90;;;;;;5070628;28;20471;-61
2024/01/27 09:38:29;;;;;;;16.77;6.70;;;4.20;99.90;;;;;;5070970;28;20041;-61
2024/01/27 09:40:55;;;;;;;20.10;7.35;;;4.40;99.90;;;;;;5072025;28;20124;-61
2024/01/27 09:43:23;;;;;;;18.27;7.13;;;4.60;99.90;;;;;;5071967;28;20094;-62
2024/01/27 09:45:49;;;;;;;15.73;7.35;;;4.80;99.90;;;;;;5070514;28;20091;-62
2024/01/27 09:48:14;;;;;;;18.60;6.55;;;5.00;99.90;;;;;;5072125;28;20071;-61
2024/01/27 09:50:42;;;;;;;20.35;6.95;;;5.10;99.90;;;;;;5070105;28;20052;-62
2024/01/27 09:53:08;;;;;;;19.63;6.63;;;5.20;99.90;;;;;;5070363;28;20047;-62
2024/01/27 09:55:35;;;;;;;17.33;6.15;;;5.40;99.90;;;;;;5070178;28;20048;-62
2024/01/27 09:58:01;;;;;;;19.25;6.32;;;5.50;99.90;;;;;;5071579;28;20495;-61
2024/01/27 10:00:27;;;;;;;20.17;6.10;;;5.70;99.90;;;;;;5072024;28;20044;-62
2024/01/27 10:02:56;;;;;;;15.30;6.03;;;5.80;99.90;;;;;;5071646;28;20060;-61
2024/01/27 10:05:24;;;;;;;20.33;5.85;;;5.90;99.90;;;;;;5071860;28;20040;-61
2024/01/27 10:07:50;;;;;;;18.67;5.78;;;6.10;99.90;;;;;;5088401;28;20032;-62
2024/01/27 10:10:16;;;;;;;15.20;5.28;;;6.30;99.90;;;;;;5062170;28;21335;-61
2024/01/27 10:12:42;;;;;;;16.73;5.63;;;6.40;99.90;;;;;;5071483;28;20044;-62
2024/01/27 10:15:19;;;;;;;12.57;6.00;;;6.70;99.90;;;;;;5069948;28;20036;-62
2024/01/27 10:17:44;;;;;;;15.15;6.53;;;6.90;99.90;;;;;;5052627;28;20056;-62
2024/01/27 10:20:15;;;;;;;19.98;5.97;;;7.10;99.90;;;;;;5069499;28;20044;-61
2024/01/27 10:22:42;;;;;;;14.85;5.22;;;7.20;99.90;;;;;;5071258;28;20395;-62
2024/01/27 10:25:08;;;;;;;13.10;6.18;;;7.40;99.90;;;;;;5070865;28;20044;-62
2024/01/27 10:27:34;;;;;;;14.02;5.07;;;7.60;99.90;;;;;;5071292;28;20033;-62
2024/01/27 10:30:00;;;;;;;13.95;5.18;;;7.70;99.90;;;;;;5071136;28;20040;-61
2024/01/27 10:32:26;;;;;;;14.27;5.05;;;7.90;99.90;;;;;;5070795;28;20483;-61
2024/01/27 10:35:10;;;;;;;14.90;5.55;;;8.00;99.90;;;;;;5071131;28;20621;-62
2024/01/27 10:37:36;;;;;;;16.55;6.20;;;8.20;99.90;;;;;;5071504;28;20155;-62
2024/01/27 10:40:07;;;;;;;16.52;5.70;;;8.20;99.90;;;;;;5071048;28;20162;-62
2024/01/27 10:42:35;;;;;;;15.80;5.70;;;8.20;99.90;;;;;;5071301;28;20040;-62
2024/01/27 10:45:01;;;;;;;19.38;5.20;;;8.20;99.90;;;;;;5069502;28;20040;-62
2024/01/27 10:47:31;;;;;;;16.77;5.50;;;8.30;99.90;;;;;;5069605;28;20040;-62
2024/01/27 10:49:58;;;;;;;17.13;5.20;;;8.40;99.90;;;;;;5069855;28;20484;-62
2024/01/27 10:52:28;;;;;;;15.90;5.22;;;8.40;99.90;;;;;;5070563;28;20044;-62
2024/01/27 10:55:06;;;;;;;14.70;4.93;;;8.50;99.90;;;;;;5069568;28;20082;-62
2024/01/27 10:57:33;;;;;;;12.95;4.55;;;8.50;99.90;;;;;;5070910;28;20048;-62
2024/01/27 11:00:03;;;;;;;16.27;4.90;;;8.60;99.90;;;;;;5069382;28;20047;-62
2024/01/27 11:02:35;;;;;;;15.07;5.50;;;8.80;99.90;;;;;;5070715;28;20169;-62
2024/01/27 11:05:03;;;;;;;15.25;5.07;;;8.90;99.90;;;;;;5071025;28;20090;-62
2024/01/27 11:07:32;;;;;;;14.73;5.65;;;9.10;99.90;;;;;;5052567;28;20398;-62
2024/01/27 11:09:58;;;;;;;20.67;5.05;;;9.30;99.90;;;;;;5069420;28;20076;-62
2024/01/27 11:12:25;;;;;;;14.80;5.05;;;9.30;99.90;;;;;;5070363;28;20503;-62
2024/01/27 11:14:51;;;;;;;18.65;4.85;;;9.40;99.90;;;;;;5069551;28;20036;-62
2024/01/27 11:17:17;;;;;;;18.17;5.13;;;9.30;99.90;;;;;;5068935;28;20037;-62
2024/01/27 11:19:45;;;;;;;16.33;5.00;;;9.10;99.90;;;;;;5075902;28;20089;-62
2024/01/27 11:22:31;;;;;;;13.60;5.03;;;8.90;99.90;;;;;;5090531;28;20035;-62
2024/01/27 11:25:05;;;;;;;15.98;5.50;;;9.00;99.90;;;;;;5089605;28;20067;-61
2024/01/27 11:27:31;;;;;;;17.23;5.55;;;8.90;99.90;;;;;;5090442;28;20491;-62
2024/01/27 11:29:57;;;;;;;19.10;5.82;;;9.00;99.90;;;;;;5092357;28;20036;-62
2024/01/27 11:32:23;;;;;;;17.67;5.32;;;9.10;99.90;;;;;;5094313;28;20144;-62
2024/01/27 11:34:49;;;;;;;18.27;5.25;;;9.00;99.90;;;;;;5089442;28;20415;-62
2024/01/27 11:37:16;;;;;;;14.82;4.85;;;9.00;99.90;;;;;;5073207;28;20103;-62
2024/01/27 11:39:42;;;;;;;13.70;4.90;;;9.00;99.90;;;;;;5073114;28;20395;-62
2024/01/27 11:42:09;;;;;;;12.35;5.07;;;9.10;99.90;;;;;;5074391;28;20032;-62
2024/01/27 11:44:38;;;;;;;17.17;5.53;;;9.00;99.90;;;;;;5072942;28;20045;-62
2024/01/27 11:47:05;;;;;;;15.23;6.10;;;9.10;99.90;;;;;;5074496;28;20062;-62
2024/01/27 11:49:30;;;;;;;18.27;6.90;;;9.10;99.90;;;;;;5073994;28;20055;-62
2024/01/27 11:51:56;;;;;;;22.42;6.00;;;9.10;99.90;;;;;;5074274;28;20048;-62
2024/01/27 11:54:22;;;;;;;17.33;6.03;;;9.20;99.90;;;;;;5073922;28;20082;-62
2024/01/27 11:56:47;;;;;;;21.52;5.60;;;9.40;99.90;;;;;;5072649;28;20082;-62
2024/01/27 11:59:14;;;;;;;16.73;6.13;;;9.90;99.90;;;;;;5073963;28;20043;-62
2024/01/27 12:01:40;;;;;;;15.05;4.80;;;10.40;99.90;;;;;;5073958;28;20037;-62
2024/01/27 12:04:07;;;;;;;17.00;5.45;;;10.80;99.90;;;;;;5072841;28;20044;-62
2024/01/27 12:06:33;;;;;;;14.02;4.85;;;10.70;99.90;;;;;;5074145;28;20055;-62
2024/01/27 12:08:58;;;;;;;14.80;4.80;;;10.80;99.90;;;;;;5072637;28;20044;-62
2024/01/27 12:11:27;;;;;;;21.70;4.70;;;10.80;99.90;;;;;;5073312;28;20051;-62
2024/01/27 12:13:53;;;;;;;19.98;4.65;;;11.20;99.90;;;;;;5072443;28;20067;-62
2024/01/27 12:16:21;;;;;;;17.00;5.80;;;11.30;99.90;;;;;;5080973;28;20510;-62
2024/01/27 12:18:51;;;;;;;17.08;5.13;;;11.60;99.90;;;;;;5093200;28;20036;-61
2024/01/27 12:21:19;;;;;;;17.63;4.57;;;11.50;99.90;;;;;;5092574;28;20044;-63
2024/01/27 12:23:53;;;;;;;16.10;4.32;;;11.10;99.90;;;;;;5092246;28;20044;-62
2024/01/27 12:26:24;;;;;;;16.08;5.03;;;11.10;99.90;;;;;;5092627;28;20052;-62
2024/01/27 12:28:50;;;;;;;17.02;3.83;;;11.30;99.90;;;;;;5093939;28;20181;-62
2024/01/27 12:31:19;;;;;;;16.65;4.60;;;11.70;99.90;;;;;;5092182;28;20135;-62
2024/01/27 12:33:55;;;;;;;12.30;4.35;;;11.70;99.90;;;;;;5091994;28;20048;-62
2024/01/27 12:36:22;;;;;;;19.55;5.30;;;12.00;99.90;;;;;;5092386;28;20119;-62
2024/01/27 12:38:59;;;;;;;17.45;4.43;;;12.30;99.90;;;;;;5091970;28;20047;-62
2024/01/27 12:41:26;;;;;;;17.05;5.70;;;13.40;99.90;;;;;;5091811;28;20055;-62